sensor_id;sensor_type;location;lat;lon;timestamp;P1;durP1;ratioP1;P2;durP2;ratioP2
18228;SDS011;9239;50.932;3.142;2024-01-30T00:00:08;9.27;;;8.37;;
18228;SDS011;9239;50.932;3.142;2024-01-30T00:02:35;12.67;;;9.67;;
18228;SDS011;9239;50.932;3.142;2024-01-30T00:05:04;9.83;;;8.83;;
18228;SDS011;9239;50.932;3.142;2024-01-30T00:07:32;9.17;;;8.33;;
18228;SDS011;9239;50.932;3.142;2024-01-30T00:09:59;9.77;;;8.77;;
18228;SDS011;9239;50.932;3.142;2024-01-30T00:12:26;9.60;;;8.37;;
18228;SDS011;9239;50.932;3.142;2024-01-30T00:14:53;11.43;;;9.03;;
18228;SDS011;9239;50.932;3.142;2024-01-30T00:17:20;9.67;;;8.50;;
18228;SDS011;9239;50.932;3.142;2024-01-30T00:19:47;8.77;;;7.87;;
18228;SDS011;9239;50.932;3.142;2024-01-30T00:22:15;9.80;;;8.80;;
18228;SDS011;9239;50.932;3.142;2024-01-30T00:24:43;9.47;;;8.13;;
18228;SDS011;9239;50.932;3.142;2024-01-30T00:27:09;9.23;;;8.33;;
18228;SDS011;9239;50.932;3.142;2024-01-30T00:29:36;8.87;;;7.83;;
18228;SDS011;9239;50.932;3.142;2024-01-30T00:32:04;9.00;;;8.07;;
18228;SDS011;9239;50.932;3.142;2024-01-30T00:34:31;8.77;;;7.87;;
18228;SDS011;9239;50.932;3.142;2024-01-30T00:36:58;11.40;;;9.90;;
18228;SDS011;9239;50.932;3.142;2024-01-30T00:39:27;10.80;;;7.83;;
18228;SDS011;9239;50.932;3.142;2024-01-30T00:41:54;10.20;;;9.10;;
18228;SDS011;9239;50.932;3.142;2024-01-30T00:44:21;9.23;;;8.37;;
18228;SDS011;9239;50.932;3.142;2024-01-30T00:46:48;9.50;;;8.60;;
18228;SDS011;9239;50.932;3.142;2024-01-30T00:49:15;10.43;;;8.50;;
18228;SDS011;9239;50.932;3.142;2024-01-30T00:51:42;9.93;;;8.93;;
18228;SDS011;9239;50.932;3.142;2024-01-30T00:54:09;11.57;;;8.73;;
18228;SDS011;9239;50.932;3.142;2024-01-30T00:56:37;9.33;;;8.43;;
18228;SDS011;9239;50.932;3.142;2024-01-30T00:59:04;12.37;;;8.67;;
18228;SDS011;9239;50.932;3.142;2024-01-30T01:01:31;10.83;;;9.07;;
18228;SDS011;9239;50.932;3.142;2024-01-30T01:03:58;9.67;;;8.57;;
18228;SDS011;9239;50.932;3.142;2024-01-30T01:06:25;9.50;;;8.50;;
18228;SDS011;9239;50.932;3.142;2024-01-30T01:08:52;10.43;;;9.03;;
18228;SDS011;9239;50.932;3.142;2024-01-30T01:11:19;10.90;;;9.53;;
18228;SDS011;9239;50.932;3.142;2024-01-30T01:13:47;9.67;;;8.70;;
18228;SDS011;9239;50.932;3.142;2024-01-30T01:16:14;10.97;;;9.60;;
18228;SDS011;9239;50.932;3.142;2024-01-30T01:18:41;9.37;;;8.40;;
18228;SDS011;9239;50.932;3.142;2024-01-30T01:21:08;10.07;;;8.83;;
18228;SDS011;9239;50.932;3.142;2024-01-30T01:23:35;10.43;;;9.33;;
18228;SDS011;9239;50.932;3.142;2024-01-30T01:26:02;10.27;;;8.93;;
18228;SDS011;9239;50.932;3.142;2024-01-30T01:28:29;9.57;;;8.33;;
18228;SDS011;9239;50.932;3.142;2024-01-30T01:30:57;9.50;;;8.60;;
18228;SDS011;9239;50.932;3.142;2024-01-30T01:33:30;10.03;;;9.03;;
18228;SDS011;9239;50.932;3.142;2024-01-30T01:35:57;10.83;;;8.97;;
18228;SDS011;9239;50.932;3.142;2024-01-30T01:38:25;9.93;;;8.53;;
18228;SDS011;9239;50.932;3.142;2024-01-30T01:40:52;11.57;;;9.50;;
18228;SDS011;9239;50.932;3.142;2024-01-30T01:43:18;13.50;;;9.03;;
18228;SDS011;9239;50.932;3.142;2024-01-30T01:45:46;11.00;;;9.30;;
18228;SDS011;9239;50.932;3.142;2024-01-30T01:48:14;9.47;;;8.43;;
18228;SDS011;9239;50.932;3.142;2024-01-30T01:50:42;9.87;;;8.87;;
18228;SDS011;9239;50.932;3.142;2024-01-30T01:53:09;9.70;;;8.60;;
18228;SDS011;9239;50.932;3.142;2024-01-30T01:55:38;10.40;;;9.27;;
18228;SDS011;9239;50.932;3.142;2024-01-30T01:58:06;11.80;;;8.83;;
18228;SDS011;9239;50.932;3.142;2024-01-30T02:00:35;9.93;;;8.93;;
18228;SDS011;9239;50.932;3.142;2024-01-30T02:03:04;10.33;;;9.30;;
18228;SDS011;9239;50.932;3.142;2024-01-30T02:05:34;10.60;;;9.60;;
18228;SDS011;9239;50.932;3.142;2024-01-30T02:08:01;11.83;;;9.70;;
18228;SDS011;9239;50.932;3.142;2024-01-30T02:10:28;11.50;;;9.57;;
18228;SDS011;9239;50.932;3.142;2024-01-30T02:12:55;9.90;;;8.87;;
18228;SDS011;9239;50.932;3.142;2024-01-30T02:15:22;12.97;;;9.70;;
18228;SDS011;9239;50.932;3.142;2024-01-30T02:17:49;9.90;;;8.93;;
18228;SDS011;9239;50.932;3.142;2024-01-30T02:20:16;10.90;;;9.83;;
18228;SDS011;9239;50.932;3.142;2024-01-30T02:22:45;11.83;;;9.93;;
18228;SDS011;9239;50.932;3.142;2024-01-30T02:25:12;10.60;;;9.50;;
18228;SDS011;9239;50.932;3.142;2024-01-30T02:27:39;10.67;;;9.57;;
18228;SDS011;9239;50.932;3.142;2024-01-30T02:30:07;13.27;;;10.27;;
18228;SDS011;9239;50.932;3.142;2024-01-30T02:32:35;10.47;;;8.90;;
18228;SDS011;9239;50.932;3.142;2024-01-30T02:35:03;11.93;;;8.83;;
18228;SDS011;9239;50.932;3.142;2024-01-30T02:37:30;9.43;;;8.43;;
18228;SDS011;9239;50.932;3.142;2024-01-30T02:39:58;11.03;;;9.93;;
18228;SDS011;9239;50.932;3.142;2024-01-30T02:42:25;10.73;;;9.27;;
18228;SDS011;9239;50.932;3.142;2024-01-30T02:44:52;10.47;;;9.30;;
18228;SDS011;9239;50.932;3.142;2024-01-30T02:47:19;11.53;;;9.90;;
18228;SDS011;9239;50.932;3.142;2024-01-30T02:49:46;11.33;;;9.10;;
18228;SDS011;9239;50.932;3.142;2024-01-30T02:52:13;9.63;;;8.43;;
18228;SDS011;9239;50.932;3.142;2024-01-30T02:54:40;9.67;;;8.87;;
18228;SDS011;9239;50.932;3.142;2024-01-30T02:57:09;10.90;;;9.57;;
18228;SDS011;9239;50.932;3.142;2024-01-30T02:59:35;9.90;;;8.83;;
18228;SDS011;9239;50.932;3.142;2024-01-30T03:02:03;9.53;;;8.53;;
18228;SDS011;9239;50.932;3.142;2024-01-30T03:04:30;10.47;;;8.83;;
18228;SDS011;9239;50.932;3.142;2024-01-30T03:06:57;11.00;;;8.67;;
18228;SDS011;9239;50.932;3.142;2024-01-30T03:09:24;9.70;;;8.53;;
18228;SDS011;9239;50.932;3.142;2024-01-30T03:11:51;10.53;;;8.80;;
18228;SDS011;9239;50.932;3.142;2024-01-30T03:14:20;10.23;;;8.77;;
18228;SDS011;9239;50.932;3.142;2024-01-30T03:16:47;9.50;;;8.13;;
18228;SDS011;9239;50.932;3.142;2024-01-30T03:19:14;10.10;;;8.43;;
18228;SDS011;9239;50.932;3.142;2024-01-30T03:21:42;11.80;;;9.57;;
18228;SDS011;9239;50.932;3.142;2024-01-30T03:24:09;9.60;;;8.70;;
18228;SDS011;9239;50.932;3.142;2024-01-30T03:26:35;9.80;;;8.80;;
18228;SDS011;9239;50.932;3.142;2024-01-30T03:29:02;9.60;;;8.70;;
18228;SDS011;9239;50.932;3.142;2024-01-30T03:31:31;9.20;;;8.30;;
18228;SDS011;9239;50.932;3.142;2024-01-30T03:33:58;10.47;;;8.83;;
18228;SDS011;9239;50.932;3.142;2024-01-30T03:36:25;9.00;;;8.10;;
18228;SDS011;9239;50.932;3.142;2024-01-30T03:38:52;10.30;;;9.27;;
18228;SDS011;9239;50.932;3.142;2024-01-30T03:41:18;11.33;;;9.50;;
18228;SDS011;9239;50.932;3.142;2024-01-30T03:43:46;9.47;;;8.53;;
18228;SDS011;9239;50.932;3.142;2024-01-30T03:46:13;11.07;;;9.73;;
18228;SDS011;9239;50.932;3.142;2024-01-30T03:48:42;11.03;;;8.50;;
18228;SDS011;9239;50.932;3.142;2024-01-30T03:51:09;9.73;;;8.77;;
18228;SDS011;9239;50.932;3.142;2024-01-30T03:53:39;9.43;;;8.53;;
18228;SDS011;9239;50.932;3.142;2024-01-30T03:56:06;9.80;;;8.77;;
18228;SDS011;9239;50.932;3.142;2024-01-30T03:58:33;10.10;;;9.10;;
18228;SDS011;9239;50.932;3.142;2024-01-30T04:01:00;13.13;;;8.67;;
18228;SDS011;9239;50.932;3.142;2024-01-30T04:03:27;10.37;;;9.40;;
18228;SDS011;9239;50.932;3.142;2024-01-30T04:05:56;9.80;;;8.47;;
18228;SDS011;9239;50.932;3.142;2024-01-30T04:08:23;11.50;;;9.43;;
18228;SDS011;9239;50.932;3.142;2024-01-30T04:10:50;9.10;;;8.13;;
18228;SDS011;9239;50.932;3.142;2024-01-30T04:13:17;10.83;;;8.53;;
18228;SDS011;9239;50.932;3.142;2024-01-30T04:15:44;10.80;;;9.10;;
18228;SDS011;9239;50.932;3.142;2024-01-30T04:18:11;10.53;;;8.50;;
18228;SDS011;9239;50.932;3.142;2024-01-30T04:20:38;12.30;;;9.10;;
18228;SDS011;9239;50.932;3.142;2024-01-30T04:23:06;11.03;;;8.80;;
18228;SDS011;9239;50.932;3.142;2024-01-30T04:25:33;9.90;;;8.77;;
18228;SDS011;9239;50.932;3.142;2024-01-30T04:28:00;10.37;;;9.07;;
18228;SDS011;9239;50.932;3.142;2024-01-30T04:30:27;9.87;;;8.97;;
18228;SDS011;9239;50.932;3.142;2024-01-30T04:32:54;10.10;;;9.07;;
18228;SDS011;9239;50.932;3.142;2024-01-30T04:35:21;10.33;;;9.00;;
18228;SDS011;9239;50.932;3.142;2024-01-30T04:37:50;10.17;;;8.83;;
18228;SDS011;9239;50.932;3.142;2024-01-30T04:40:19;10.07;;;9.07;;
18228;SDS011;9239;50.932;3.142;2024-01-30T04:42:46;9.47;;;8.57;;
18228;SDS011;9239;50.932;3.142;2024-01-30T04:45:13;10.57;;;8.80;;
18228;SDS011;9239;50.932;3.142;2024-01-30T04:47:40;10.87;;;9.10;;
18228;SDS011;9239;50.932;3.142;2024-01-30T04:50:07;11.70;;;9.30;;
18228;SDS011;9239;50.932;3.142;2024-01-30T04:52:35;13.47;;;9.23;;
18228;SDS011;9239;50.932;3.142;2024-01-30T04:55:02;13.40;;;9.90;;
18228;SDS011;9239;50.932;3.142;2024-01-30T04:57:30;9.77;;;8.87;;
18228;SDS011;9239;50.932;3.142;2024-01-30T04:59:58;9.80;;;8.80;;
18228;SDS011;9239;50.932;3.142;2024-01-30T05:02:26;13.57;;;9.40;;
18228;SDS011;9239;50.932;3.142;2024-01-30T05:04:53;10.07;;;9.07;;
18228;SDS011;9239;50.932;3.142;2024-01-30T05:07:20;11.37;;;9.87;;
18228;SDS011;9239;50.932;3.142;2024-01-30T05:09:47;11.57;;;8.73;;
18228;SDS011;9239;50.932;3.142;2024-01-30T05:12:14;11.23;;;9.20;;
18228;SDS011;9239;50.932;3.142;2024-01-30T05:14:43;10.87;;;9.27;;
18228;SDS011;9239;50.932;3.142;2024-01-30T05:17:10;11.47;;;9.77;;
18228;SDS011;9239;50.932;3.142;2024-01-30T05:19:38;10.50;;;9.33;;
18228;SDS011;9239;50.932;3.142;2024-01-30T05:22:05;12.03;;;10.83;;
18228;SDS011;9239;50.932;3.142;2024-01-30T05:24:33;10.47;;;9.10;;
18228;SDS011;9239;50.932;3.142;2024-01-30T05:27:00;12.60;;;9.63;;
18228;SDS011;9239;50.932;3.142;2024-01-30T05:29:27;10.37;;;9.27;;
18228;SDS011;9239;50.932;3.142;2024-01-30T05:31:56;12.90;;;9.53;;
18228;SDS011;9239;50.932;3.142;2024-01-30T05:34:23;11.77;;;9.40;;
18228;SDS011;9239;50.932;3.142;2024-01-30T05:36:50;10.90;;;9.30;;
18228;SDS011;9239;50.932;3.142;2024-01-30T05:39:17;10.43;;;9.33;;
18228;SDS011;9239;50.932;3.142;2024-01-30T05:41:43;10.70;;;9.60;;
18228;SDS011;9239;50.932;3.142;2024-01-30T05:44:11;10.83;;;9.40;;
18228;SDS011;9239;50.932;3.142;2024-01-30T05:46:38;11.07;;;9.83;;
18228;SDS011;9239;50.932;3.142;2024-01-30T05:49:06;11.70;;;10.13;;
18228;SDS011;9239;50.932;3.142;2024-01-30T05:51:33;11.70;;;10.50;;
18228;SDS011;9239;50.932;3.142;2024-01-30T05:54:00;15.00;;;10.20;;
18228;SDS011;9239;50.932;3.142;2024-01-30T05:56:28;11.23;;;10.13;;
18228;SDS011;9239;50.932;3.142;2024-01-30T05:58:55;13.60;;;10.97;;
18228;SDS011;9239;50.932;3.142;2024-01-30T06:01:22;13.37;;;9.97;;
18228;SDS011;9239;50.932;3.142;2024-01-30T06:03:49;10.70;;;9.57;;
18228;SDS011;9239;50.932;3.142;2024-01-30T06:06:18;14.10;;;10.00;;
18228;SDS011;9239;50.932;3.142;2024-01-30T06:08:45;10.27;;;9.17;;
18228;SDS011;9239;50.932;3.142;2024-01-30T06:11:12;10.70;;;9.60;;
18228;SDS011;9239;50.932;3.142;2024-01-30T06:13:39;10.70;;;9.63;;
18228;SDS011;9239;50.932;3.142;2024-01-30T06:16:08;11.20;;;9.33;;
18228;SDS011;9239;50.932;3.142;2024-01-30T06:18:36;10.47;;;9.00;;
18228;SDS011;9239;50.932;3.142;2024-01-30T06:21:04;10.80;;;9.70;;
18228;SDS011;9239;50.932;3.142;2024-01-30T06:23:32;10.80;;;9.70;;
18228;SDS011;9239;50.932;3.142;2024-01-30T06:25:59;12.57;;;8.73;;
18228;SDS011;9239;50.932;3.142;2024-01-30T06:28:27;10.20;;;9.13;;
18228;SDS011;9239;50.932;3.142;2024-01-30T06:30:56;9.77;;;8.77;;
18228;SDS011;9239;50.932;3.142;2024-01-30T06:33:23;12.00;;;9.50;;
18228;SDS011;9239;50.932;3.142;2024-01-30T06:35:50;10.47;;;8.87;;
18228;SDS011;9239;50.932;3.142;2024-01-30T06:38:17;10.27;;;8.50;;
18228;SDS011;9239;50.932;3.142;2024-01-30T06:40:45;11.43;;;8.33;;
18228;SDS011;9239;50.932;3.142;2024-01-30T06:43:12;10.63;;;9.17;;
18228;SDS011;9239;50.932;3.142;2024-01-30T06:45:39;11.77;;;9.30;;
18228;SDS011;9239;50.932;3.142;2024-01-30T06:48:07;11.30;;;9.30;;
18228;SDS011;9239;50.932;3.142;2024-01-30T06:50:34;11.87;;;9.33;;
18228;SDS011;9239;50.932;3.142;2024-01-30T06:53:01;12.00;;;8.50;;
18228;SDS011;9239;50.932;3.142;2024-01-30T06:55:29;9.57;;;8.50;;
18228;SDS011;9239;50.932;3.142;2024-01-30T06:57:57;13.13;;;9.97;;
18228;SDS011;9239;50.932;3.142;2024-01-30T07:00:24;10.40;;;9.27;;
18228;SDS011;9239;50.932;3.142;2024-01-30T07:02:51;11.97;;;9.27;;
18228;SDS011;9239;50.932;3.142;2024-01-30T07:05:18;11.77;;;9.10;;
18228;SDS011;9239;50.932;3.142;2024-01-30T07:07:47;10.50;;;9.40;;
18228;SDS011;9239;50.932;3.142;2024-01-30T07:10:14;10.47;;;9.37;;
18228;SDS011;9239;50.932;3.142;2024-01-30T07:12:41;13.17;;;9.53;;
18228;SDS011;9239;50.932;3.142;2024-01-30T07:15:09;11.17;;;9.63;;
18228;SDS011;9239;50.932;3.142;2024-01-30T07:17:37;14.63;;;10.03;;
18228;SDS011;9239;50.932;3.142;2024-01-30T07:20:05;11.47;;;9.13;;
18228;SDS011;9239;50.932;3.142;2024-01-30T07:22:34;11.70;;;8.93;;
18228;SDS011;9239;50.932;3.142;2024-01-30T07:25:01;11.30;;;8.43;;
18228;SDS011;9239;50.932;3.142;2024-01-30T07:27:28;11.57;;;9.90;;
18228;SDS011;9239;50.932;3.142;2024-01-30T07:29:55;14.70;;;9.10;;
18228;SDS011;9239;50.932;3.142;2024-01-30T07:32:23;10.90;;;8.47;;
18228;SDS011;9239;50.932;3.142;2024-01-30T07:34:50;9.93;;;9.03;;
18228;SDS011;9239;50.932;3.142;2024-01-30T07:37:17;11.20;;;9.20;;
18228;SDS011;9239;50.932;3.142;2024-01-30T07:39:44;11.03;;;10.00;;
18228;SDS011;9239;50.932;3.142;2024-01-30T07:42:11;12.27;;;8.57;;
18228;SDS011;9239;50.932;3.142;2024-01-30T07:44:38;14.33;;;9.13;;
18228;SDS011;9239;50.932;3.142;2024-01-30T07:47:05;13.60;;;9.07;;
18228;SDS011;9239;50.932;3.142;2024-01-30T07:49:34;9.90;;;8.93;;
18228;SDS011;9239;50.932;3.142;2024-01-30T07:52:01;9.70;;;8.70;;
18228;SDS011;9239;50.932;3.142;2024-01-30T07:54:31;13.67;;;9.30;;
18228;SDS011;9239;50.932;3.142;2024-01-30T07:56:59;14.07;;;8.53;;
18228;SDS011;9239;50.932;3.142;2024-01-30T07:59:27;15.73;;;8.87;;
18228;SDS011;9239;50.932;3.142;2024-01-30T08:01:54;12.73;;;7.47;;
18228;SDS011;9239;50.932;3.142;2024-01-30T08:04:21;9.53;;;7.50;;
18228;SDS011;9239;50.932;3.142;2024-01-30T08:06:49;10.63;;;5.60;;
18228;SDS011;9239;50.932;3.142;2024-01-30T08:09:16;6.80;;;4.80;;
18228;SDS011;9239;50.932;3.142;2024-01-30T08:11:43;5.93;;;4.53;;
18228;SDS011;9239;50.932;3.142;2024-01-30T08:14:10;8.27;;;4.77;;
18228;SDS011;9239;50.932;3.142;2024-01-30T08:16:38;5.77;;;3.37;;
18228;SDS011;9239;50.932;3.142;2024-01-30T08:19:05;6.20;;;3.50;;
18228;SDS011;9239;50.932;3.142;2024-01-30T08:21:32;5.47;;;3.30;;
18228;SDS011;9239;50.932;3.142;2024-01-30T08:24:03;6.20;;;2.87;;
18228;SDS011;9239;50.932;3.142;2024-01-30T08:26:30;5.67;;;2.60;;
18228;SDS011;9239;50.932;3.142;2024-01-30T08:28:57;6.37;;;3.47;;
18228;SDS011;9239;50.932;3.142;2024-01-30T08:31:24;5.67;;;2.67;;
18228;SDS011;9239;50.932;3.142;2024-01-30T08:33:52;5.43;;;3.90;;
18228;SDS011;9239;50.932;3.142;2024-01-30T08:36:20;6.30;;;2.70;;
18228;SDS011;9239;50.932;3.142;2024-01-30T08:38:47;4.77;;;2.37;;
18228;SDS011;9239;50.932;3.142;2024-01-30T08:41:15;4.17;;;2.43;;
18228;SDS011;9239;50.932;3.142;2024-01-30T08:43:42;4.50;;;2.50;;
18228;SDS011;9239;50.932;3.142;2024-01-30T08:46:10;4.53;;;2.70;;
18228;SDS011;9239;50.932;3.142;2024-01-30T08:48:37;4.10;;;2.27;;
18228;SDS011;9239;50.932;3.142;2024-01-30T08:51:04;4.10;;;2.73;;
18228;SDS011;9239;50.932;3.142;2024-01-30T08:53:33;3.43;;;2.87;;
18228;SDS011;9239;50.932;3.142;2024-01-30T08:56:01;7.03;;;2.90;;
18228;SDS011;9239;50.932;3.142;2024-01-30T08:58:29;7.33;;;1.90;;
18228;SDS011;9239;50.932;3.142;2024-01-30T09:00:56;3.03;;;1.90;;
18228;SDS011;9239;50.932;3.142;2024-01-30T09:03:23;4.93;;;3.00;;
18228;SDS011;9239;50.932;3.142;2024-01-30T09:05:50;4.47;;;2.23;;
18228;SDS011;9239;50.932;3.142;2024-01-30T09:08:17;3.73;;;2.00;;
18228;SDS011;9239;50.932;3.142;2024-01-30T09:10:44;2.60;;;1.30;;
18228;SDS011;9239;50.932;3.142;2024-01-30T09:13:11;1.50;;;1.10;;
18228;SDS011;9239;50.932;3.142;2024-01-30T09:15:40;2.43;;;1.00;;
18228;SDS011;9239;50.932;3.142;2024-01-30T09:18:07;3.00;;;0.90;;
18228;SDS011;9239;50.932;3.142;2024-01-30T09:20:35;2.90;;;1.10;;
18228;SDS011;9239;50.932;3.142;2024-01-30T09:23:02;3.77;;;2.30;;
18228;SDS011;9239;50.932;3.142;2024-01-30T09:25:29;3.37;;;1.30;;
18228;SDS011;9239;50.932;3.142;2024-01-30T09:27:56;3.00;;;1.17;;
18228;SDS011;9239;50.932;3.142;2024-01-30T09:30:23;2.93;;;1.20;;
18228;SDS011;9239;50.932;3.142;2024-01-30T09:32:51;3.43;;;1.50;;
18228;SDS011;9239;50.932;3.142;2024-01-30T09:35:18;3.07;;;1.43;;
18228;SDS011;9239;50.932;3.142;2024-01-30T09:37:45;2.57;;;1.27;;
18228;SDS011;9239;50.932;3.142;2024-01-30T09:40:13;1.97;;;1.20;;
18228;SDS011;9239;50.932;3.142;2024-01-30T09:42:44;3.40;;;1.33;;
18228;SDS011;9239;50.932;3.142;2024-01-30T09:45:13;4.17;;;1.40;;
18228;SDS011;9239;50.932;3.142;2024-01-30T09:47:41;5.13;;;1.10;;
18228;SDS011;9239;50.932;3.142;2024-01-30T09:50:11;3.03;;;1.10;;
18228;SDS011;9239;50.932;3.142;2024-01-30T09:52:39;4.37;;;1.47;;
18228;SDS011;9239;50.932;3.142;2024-01-30T09:55:06;5.07;;;1.23;;
18228;SDS011;9239;50.932;3.142;2024-01-30T09:57:34;3.50;;;1.87;;
18228;SDS011;9239;50.932;3.142;2024-01-30T10:00:01;3.53;;;1.70;;
18228;SDS011;9239;50.932;3.142;2024-01-30T10:02:30;3.77;;;1.30;;
18228;SDS011;9239;50.932;3.142;2024-01-30T10:04:58;4.00;;;1.40;;
18228;SDS011;9239;50.932;3.142;2024-01-30T10:07:27;3.07;;;1.47;;
18228;SDS011;9239;50.932;3.142;2024-01-30T10:09:55;4.33;;;1.70;;
18228;SDS011;9239;50.932;3.142;2024-01-30T10:12:22;5.10;;;1.30;;
18228;SDS011;9239;50.932;3.142;2024-01-30T10:14:49;3.73;;;1.33;;
18228;SDS011;9239;50.932;3.142;2024-01-30T10:17:17;6.00;;;1.40;;
18228;SDS011;9239;50.932;3.142;2024-01-30T10:19:46;2.50;;;1.20;;
18228;SDS011;9239;50.932;3.142;2024-01-30T10:22:13;4.03;;;1.70;;
18228;SDS011;9239;50.932;3.142;2024-01-30T10:24:42;2.83;;;1.50;;
18228;SDS011;9239;50.932;3.142;2024-01-30T10:27:10;3.93;;;1.57;;
18228;SDS011;9239;50.932;3.142;2024-01-30T10:29:37;4.10;;;1.30;;
18228;SDS011;9239;50.932;3.142;2024-01-30T10:32:04;4.40;;;1.40;;
18228;SDS011;9239;50.932;3.142;2024-01-30T10:34:32;6.83;;;1.67;;
18228;SDS011;9239;50.932;3.142;2024-01-30T10:37:05;7.63;;;1.73;;
18228;SDS011;9239;50.932;3.142;2024-01-30T10:39:38;5.40;;;1.77;;
18228;SDS011;9239;50.932;3.142;2024-01-30T10:42:09;6.93;;;1.53;;
18228;SDS011;9239;50.932;3.142;2024-01-30T10:44:42;2.40;;;1.17;;
18228;SDS011;9239;50.932;3.142;2024-01-30T10:47:14;4.27;;;1.60;;
18228;SDS011;9239;50.932;3.142;2024-01-30T10:49:46;7.87;;;1.83;;
18228;SDS011;9239;50.932;3.142;2024-01-30T10:52:13;5.13;;;1.57;;
18228;SDS011;9239;50.932;3.142;2024-01-30T10:54:42;4.10;;;1.50;;
18228;SDS011;9239;50.932;3.142;2024-01-30T10:57:12;6.57;;;1.80;;
18228;SDS011;9239;50.932;3.142;2024-01-30T10:59:42;5.97;;;2.20;;
18228;SDS011;9239;50.932;3.142;2024-01-30T11:02:10;3.57;;;1.90;;
18228;SDS011;9239;50.932;3.142;2024-01-30T11:04:38;5.73;;;1.43;;
18228;SDS011;9239;50.932;3.142;2024-01-30T11:07:14;4.13;;;1.30;;
18228;SDS011;9239;50.932;3.142;2024-01-30T11:09:47;3.97;;;1.73;;
18228;SDS011;9239;50.932;3.142;2024-01-30T11:12:18;7.87;;;2.40;;
18228;SDS011;9239;50.932;3.142;2024-01-30T11:14:48;3.47;;;1.13;;
18228;SDS011;9239;50.932;3.142;2024-01-30T11:17:15;4.73;;;1.67;;
18228;SDS011;9239;50.932;3.142;2024-01-30T11:19:42;3.20;;;1.23;;
18228;SDS011;9239;50.932;3.142;2024-01-30T11:22:10;1.47;;;0.80;;
18228;SDS011;9239;50.932;3.142;2024-01-30T11:24:39;4.03;;;1.10;;
18228;SDS011;9239;50.932;3.142;2024-01-30T11:27:08;2.00;;;1.27;;
18228;SDS011;9239;50.932;3.142;2024-01-30T11:29:37;4.67;;;1.60;;
18228;SDS011;9239;50.932;3.142;2024-01-30T11:32:04;6.00;;;1.90;;
18228;SDS011;9239;50.932;3.142;2024-01-30T11:34:32;3.90;;;1.20;;
18228;SDS011;9239;50.932;3.142;2024-01-30T11:37:01;4.37;;;1.07;;
18228;SDS011;9239;50.932;3.142;2024-01-30T11:39:30;3.10;;;1.53;;
18228;SDS011;9239;50.932;3.142;2024-01-30T11:41:57;2.37;;;1.10;;
18228;SDS011;9239;50.932;3.142;2024-01-30T11:44:25;3.67;;;1.00;;
18228;SDS011;9239;50.932;3.142;2024-01-30T11:46:54;4.63;;;1.27;;
18228;SDS011;9239;50.932;3.142;2024-01-30T11:49:20;1.80;;;0.90;;
18228;SDS011;9239;50.932;3.142;2024-01-30T11:51:48;3.73;;;1.37;;
18228;SDS011;9239;50.932;3.142;2024-01-30T11:54:15;2.40;;;1.13;;
18228;SDS011;9239;50.932;3.142;2024-01-30T11:56:42;1.47;;;1.10;;
18228;SDS011;9239;50.932;3.142;2024-01-30T11:59:09;3.60;;;1.40;;
18228;SDS011;9239;50.932;3.142;2024-01-30T12:01:36;4.83;;;1.87;;
18228;SDS011;9239;50.932;3.142;2024-01-30T12:04:05;1.87;;;1.10;;
18228;SDS011;9239;50.932;3.142;2024-01-30T12:06:34;5.47;;;1.43;;
18228;SDS011;9239;50.932;3.142;2024-01-30T12:09:01;3.17;;;1.23;;
18228;SDS011;9239;50.932;3.142;2024-01-30T12:11:30;3.47;;;1.20;;
18228;SDS011;9239;50.932;3.142;2024-01-30T12:13:58;3.73;;;1.40;;
18228;SDS011;9239;50.932;3.142;2024-01-30T12:16:25;6.20;;;1.53;;
18228;SDS011;9239;50.932;3.142;2024-01-30T12:18:59;6.50;;;1.67;;
18228;SDS011;9239;50.932;3.142;2024-01-30T12:21:28;2.30;;;1.60;;
18228;SDS011;9239;50.932;3.142;2024-01-30T12:23:55;2.00;;;1.07;;
18228;SDS011;9239;50.932;3.142;2024-01-30T12:26:23;2.57;;;1.20;;
18228;SDS011;9239;50.932;3.142;2024-01-30T12:28:53;2.43;;;1.23;;
18228;SDS011;9239;50.932;3.142;2024-01-30T12:31:25;2.23;;;1.20;;
18228;SDS011;9239;50.932;3.142;2024-01-30T12:33:53;3.40;;;1.60;;
18228;SDS011;9239;50.932;3.142;2024-01-30T12:36:20;6.43;;;1.80;;
18228;SDS011;9239;50.932;3.142;2024-01-30T12:38:49;4.47;;;1.70;;
18228;SDS011;9239;50.932;3.142;2024-01-30T12:41:16;6.83;;;3.40;;
18228;SDS011;9239;50.932;3.142;2024-01-30T12:43:43;4.70;;;2.53;;
18228;SDS011;9239;50.932;3.142;2024-01-30T12:46:10;7.07;;;2.27;;
18228;SDS011;9239;50.932;3.142;2024-01-30T12:48:37;4.80;;;2.53;;
18228;SDS011;9239;50.932;3.142;2024-01-30T12:51:04;4.60;;;2.20;;
18228;SDS011;9239;50.932;3.142;2024-01-30T12:53:31;5.37;;;2.20;;
18228;SDS011;9239;50.932;3.142;2024-01-30T12:56:00;8.10;;;3.63;;
18228;SDS011;9239;50.932;3.142;2024-01-30T12:58:27;5.27;;;3.37;;
18228;SDS011;9239;50.932;3.142;2024-01-30T13:00:54;3.13;;;1.70;;
18228;SDS011;9239;50.932;3.142;2024-01-30T13:03:21;3.63;;;2.20;;
18228;SDS011;9239;50.932;3.142;2024-01-30T13:05:48;6.40;;;3.13;;
18228;SDS011;9239;50.932;3.142;2024-01-30T13:08:15;3.33;;;1.50;;
18228;SDS011;9239;50.932;3.142;2024-01-30T13:10:42;3.60;;;1.73;;
18228;SDS011;9239;50.932;3.142;2024-01-30T13:13:10;4.63;;;2.77;;
18228;SDS011;9239;50.932;3.142;2024-01-30T13:15:37;7.03;;;3.20;;
18228;SDS011;9239;50.932;3.142;2024-01-30T13:18:05;4.70;;;2.30;;
18228;SDS011;9239;50.932;3.142;2024-01-30T13:20:32;7.33;;;3.43;;
18228;SDS011;9239;50.932;3.142;2024-01-30T13:22:59;4.87;;;2.87;;
18228;SDS011;9239;50.932;3.142;2024-01-30T13:25:26;4.80;;;2.60;;
18228;SDS011;9239;50.932;3.142;2024-01-30T13:27:53;3.97;;;1.97;;
18228;SDS011;9239;50.932;3.142;2024-01-30T13:30:21;5.00;;;2.23;;
18228;SDS011;9239;50.932;3.142;2024-01-30T13:32:48;3.83;;;1.77;;
18228;SDS011;9239;50.932;3.142;2024-01-30T13:35:15;6.07;;;3.20;;
18228;SDS011;9239;50.932;3.142;2024-01-30T13:37:43;5.93;;;2.40;;
18228;SDS011;9239;50.932;3.142;2024-01-30T13:40:10;6.20;;;2.60;;
18228;SDS011;9239;50.932;3.142;2024-01-30T13:42:39;4.30;;;1.83;;
18228;SDS011;9239;50.932;3.142;2024-01-30T13:45:06;5.03;;;2.53;;
18228;SDS011;9239;50.932;3.142;2024-01-30T13:47:36;7.10;;;2.37;;
18228;SDS011;9239;50.932;3.142;2024-01-30T13:50:03;4.13;;;2.30;;
18228;SDS011;9239;50.932;3.142;2024-01-30T13:52:30;4.47;;;2.03;;
18228;SDS011;9239;50.932;3.142;2024-01-30T13:54:57;6.23;;;2.50;;
18228;SDS011;9239;50.932;3.142;2024-01-30T13:57:24;5.87;;;2.70;;
18228;SDS011;9239;50.932;3.142;2024-01-30T13:59:51;4.30;;;3.17;;
18228;SDS011;9239;50.932;3.142;2024-01-30T14:02:18;7.47;;;3.00;;
18228;SDS011;9239;50.932;3.142;2024-01-30T14:04:47;9.40;;;3.40;;
18228;SDS011;9239;50.932;3.142;2024-01-30T14:07:14;6.23;;;3.33;;
18228;SDS011;9239;50.932;3.142;2024-01-30T14:09:43;7.30;;;3.50;;
18228;SDS011;9239;50.932;3.142;2024-01-30T14:12:10;4.70;;;2.50;;
18228;SDS011;9239;50.932;3.142;2024-01-30T14:14:37;3.43;;;2.40;;
18228;SDS011;9239;50.932;3.142;2024-01-30T14:17:04;4.77;;;3.00;;
18228;SDS011;9239;50.932;3.142;2024-01-30T14:19:32;6.23;;;3.13;;
18228;SDS011;9239;50.932;3.142;2024-01-30T14:22:00;2.87;;;2.43;;
18228;SDS011;9239;50.932;3.142;2024-01-30T14:24:27;5.83;;;3.67;;
18228;SDS011;9239;50.932;3.142;2024-01-30T14:26:54;5.97;;;3.90;;
18228;SDS011;9239;50.932;3.142;2024-01-30T14:29:21;7.77;;;4.00;;
18228;SDS011;9239;50.932;3.142;2024-01-30T14:31:48;8.53;;;4.67;;
18228;SDS011;9239;50.932;3.142;2024-01-30T14:34:15;4.90;;;3.40;;
18228;SDS011;9239;50.932;3.142;2024-01-30T14:36:43;6.40;;;4.03;;
18228;SDS011;9239;50.932;3.142;2024-01-30T14:39:12;4.50;;;2.87;;
18228;SDS011;9239;50.932;3.142;2024-01-30T14:41:39;7.37;;;3.00;;
18228;SDS011;9239;50.932;3.142;2024-01-30T14:44:06;9.53;;;3.40;;
18228;SDS011;9239;50.932;3.142;2024-01-30T14:46:34;4.53;;;2.87;;
18228;SDS011;9239;50.932;3.142;2024-01-30T14:49:02;5.10;;;2.90;;
18228;SDS011;9239;50.932;3.142;2024-01-30T14:51:30;4.50;;;3.23;;
18228;SDS011;9239;50.932;3.142;2024-01-30T14:53:58;6.03;;;3.33;;
18228;SDS011;9239;50.932;3.142;2024-01-30T14:56:27;5.37;;;2.73;;